Time;durP1;ratioP1;P1;durP2;ratioP2;P2;SDS_P1;SDS_P2;PMS_P1;PMS_P2;Temp;Humidity;BMP_temperature;BMP_pressure;BME280_temperature;BME280_humidity;BME280_pressure;Samples;Min_cycle;Max_cycle;Signal;HPM_P1;HPM_P2
2021/03/31 00:01:31;;;;;;;12.20;8.10;;;9.60;99.90;;;;;;5074790;28;20238;-79
2021/03/31 00:03:57;;;;;;;10.50;7.93;;;9.50;99.90;;;;;;5074898;28;20198;-79
2021/03/31 00:06:24;;;;;;;10.47;8.30;;;9.50;99.90;;;;;;5075034;28;20199;-79
2021/03/31 00:08:51;;;;;;;13.03;7.73;;;9.40;99.90;;;;;;5074352;28;20210;-79
2021/03/31 00:11:18;;;;;;;11.47;8.67;;;9.40;99.90;;;;;;5075139;28;20201;-79
2021/03/31 00:13:44;;;;;;;13.83;8.63;;;9.40;99.90;;;;;;5074460;28;20752;-79
2021/03/31 00:16:11;;;;;;;13.57;8.97;;;9.40;99.90;;;;;;5074537;28;20790;-78
2021/03/31 00:18:37;;;;;;;14.13;8.93;;;9.40;99.90;;;;;;5074132;28;20689;-79
2021/03/31 00:21:05;;;;;;;12.20;9.40;;;9.40;99.90;;;;;;5074458;28;20285;-79
2021/03/31 00:23:32;;;;;;;13.67;9.00;;;9.30;99.90;;;;;;5073882;28;21125;-79
2021/03/31 00:25:59;;;;;;;13.90;9.90;;;9.20;99.90;;;;;;5074776;28;20289;-79
2021/03/31 00:28:26;;;;;;;14.50;9.00;;;9.10;99.90;;;;;;5074505;28;20601;-78
2021/03/31 00:30:53;;;;;;;12.67;9.13;;;9.10;99.90;;;;;;5074692;28;20211;-79
2021/03/31 00:33:20;;;;;;;12.57;9.10;;;9.10;99.90;;;;;;5074759;28;20220;-79
2021/03/31 00:35:47;;;;;;;14.37;9.57;;;9.00;99.90;;;;;;5074376;28;20239;-79
2021/03/31 00:38:14;;;;;;;12.13;9.40;;;9.10;99.90;;;;;;5073521;28;20240;-78
2021/03/31 00:40:44;;;;;;;10.40;8.60;;;9.10;99.90;;;;;;5074305;28;20667;-79
2021/03/31 00:43:10;;;;;;;10.83;8.73;;;9.00;99.90;;;;;;5074134;28;20310;-79
2021/03/31 00:45:37;;;;;;;12.77;9.17;;;9.00;99.90;;;;;;5074334;28;20197;-79
2021/03/31 00:48:04;;;;;;;13.77;9.67;;;9.00;99.90;;;;;;5074051;28;20286;-79
2021/03/31 00:50:31;;;;;;;12.10;9.13;;;9.00;99.90;;;;;;5073734;28;20692;-79
2021/03/31 00:52:59;;;;;;;12.30;9.03;;;9.00;99.90;;;;;;5073909;28;20230;-79
2021/03/31 00:55:29;;;;;;;11.17;9.10;;;9.00;99.90;;;;;;5074372;28;20200;-79
2021/03/31 00:57:56;;;;;;;11.20;8.90;;;8.90;99.90;;;;;;5073003;28;20224;-79
2021/03/31 01:00:24;;;;;;;14.30;9.33;;;9.00;99.90;;;;;;5073994;28;20201;-78
2021/03/31 01:02:50;;;;;;;14.17;9.60;;;8.90;99.90;;;;;;5074023;28;20711;-78
2021/03/31 01:05:19;;;;;;;12.00;9.20;;;8.90;99.90;;;;;;5088646;28;20231;-79
2021/03/31 01:07:46;;;;;;;15.33;9.80;;;9.00;99.90;;;;;;5074060;28;20238;-78
2021/03/31 01:10:14;;;;;;;11.27;9.50;;;9.00;99.90;;;;;;5073350;28;20239;-79
2021/03/31 01:12:53;;;;;;;11.43;9.10;;;9.00;99.90;;;;;;5073755;28;20247;-79
2021/03/31 01:15:27;;;;;;;12.63;10.13;;;9.00;99.90;;;;;;5072994;28;20557;-78
2021/03/31 01:18:02;;;;;;;12.00;9.40;;;8.90;99.90;;;;;;5073739;28;20248;-78
2021/03/31 01:20:54;;;;;;;13.77;9.70;;;8.90;99.90;;;;;;5072742;28;20257;-78
2021/03/31 01:23:57;;;;;;;12.40;9.97;;;8.80;99.90;;;;;;5073031;28;20262;-78
2021/03/31 01:26:29;;;;;;;13.00;10.30;;;8.70;99.90;;;;;;5073277;28;20576;-78
2021/03/31 01:29:22;;;;;;;14.13;9.90;;;8.60;99.90;;;;;;5071858;28;20203;-79
2021/03/31 01:32:05;;;;;;;12.57;9.83;;;8.60;99.90;;;;;;5073529;28;20231;-79
2021/03/31 01:34:43;;;;;;;13.47;9.70;;;8.60;99.90;;;;;;5072621;28;20719;-78
2021/03/31 01:37:16;;;;;;;15.33;9.83;;;8.50;99.90;;;;;;5072642;28;20194;-78
2021/03/31 01:39:45;;;;;;;13.00;9.43;;;8.40;99.90;;;;;;5073115;28;20207;-79
2021/03/31 01:42:14;;;;;;;13.13;9.50;;;8.40;99.90;;;;;;5072905;28;20225;-79
2021/03/31 01:44:43;;;;;;;13.20;9.80;;;8.40;99.90;;;;;;5073399;28;20230;-78
2021/03/31 01:47:12;;;;;;;13.33;9.90;;;8.30;99.90;;;;;;5073004;28;20639;-79
2021/03/31 01:49:40;;;;;;;13.30;10.00;;;8.20;99.90;;;;;;5072727;28;20236;-78
2021/03/31 01:52:08;;;;;;;12.40;9.83;;;8.20;99.90;;;;;;5072879;28;20545;-78
2021/03/31 01:54:36;;;;;;;14.73;9.90;;;8.10;99.90;;;;;;5072895;28;20235;-78
2021/03/31 01:57:05;;;;;;;13.03;9.03;;;8.10;99.90;;;;;;5070421;28;20233;-79
2021/03/31 01:59:32;;;;;;;13.53;8.90;;;8.10;99.90;;;;;;5054479;28;20586;-78
2021/03/31 02:01:59;;;;;;;12.87;9.40;;;8.10;99.90;;;;;;5053323;28;20219;-78
2021/03/31 02:04:27;;;;;;;12.27;9.57;;;8.20;99.90;;;;;;5071895;28;20198;-80
2021/03/31 02:06:55;;;;;;;13.73;10.17;;;8.20;99.90;;;;;;5072907;28;20562;-78
2021/03/31 02:09:22;;;;;;;13.47;9.83;;;8.20;99.90;;;;;;5072457;28;20678;-79
2021/03/31 02:11:49;;;;;;;19.00;10.17;;;8.20;99.90;;;;;;5072070;28;20617;-78
2021/03/31 02:14:18;;;;;;;13.77;9.50;;;8.30;99.90;;;;;;5072334;28;20977;-78
2021/03/31 02:16:45;;;;;;;13.33;8.93;;;8.30;99.90;;;;;;5071631;28;20828;-79
2021/03/31 02:19:14;;;;;;;12.40;9.63;;;8.20;99.90;;;;;;5071792;28;20233;-80
2021/03/31 02:21:42;;;;;;;14.17;9.80;;;8.10;99.90;;;;;;5071625;28;20314;-80
2021/03/31 02:24:13;;;;;;;15.63;9.53;;;8.20;99.90;;;;;;5072547;28;20214;-80
2021/03/31 02:26:40;;;;;;;11.83;9.20;;;8.20;99.90;;;;;;5072019;28;20196;-80
2021/03/31 02:29:07;;;;;;;15.07;9.77;;;8.20;99.90;;;;;;5072466;28;20231;-80
2021/03/31 02:31:35;;;;;;;16.07;9.83;;;8.20;99.90;;;;;;5070323;28;20231;-80
2021/03/31 02:34:03;;;;;;;13.17;9.90;;;8.20;99.90;;;;;;5072099;28;20227;-80
2021/03/31 02:36:31;;;;;;;17.60;10.57;;;8.20;99.90;;;;;;5072047;28;20240;-80
2021/03/31 02:39:00;;;;;;;13.97;10.27;;;8.30;99.90;;;;;;5071754;28;20234;-80
2021/03/31 02:41:29;;;;;;;13.03;10.20;;;8.30;99.90;;;;;;5071568;28;20230;-80
2021/03/31 02:43:57;;;;;;;13.83;10.67;;;8.30;99.90;;;;;;5072126;28;20267;-80
2021/03/31 02:46:25;;;;;;;14.03;10.17;;;8.30;99.90;;;;;;5072374;28;20208;-80
2021/03/31 02:48:53;;;;;;;14.20;10.47;;;8.40;99.90;;;;;;5071908;28;20278;-80
2021/03/31 02:51:21;;;;;;;12.60;9.83;;;8.40;99.90;;;;;;5072241;28;20202;-80
2021/03/31 02:53:49;;;;;;;12.87;9.50;;;8.50;99.90;;;;;;5071473;28;20202;-80
2021/03/31 02:56:17;;;;;;;13.80;9.77;;;8.40;99.90;;;;;;5071561;28;20234;-80
2021/03/31 02:58:46;;;;;;;11.90;9.43;;;8.40;99.90;;;;;;5071757;28;20201;-80
2021/03/31 03:01:13;;;;;;;12.57;9.57;;;8.30;99.90;;;;;;5071372;28;20207;-80
2021/03/31 03:03:40;;;;;;;14.00;8.70;;;8.20;99.90;;;;;;5071364;28;20265;-80
2021/03/31 03:06:07;;;;;;;14.17;9.83;;;8.10;99.90;;;;;;5071902;28;20203;-80
2021/03/31 03:08:35;;;;;;;11.60;8.97;;;8.00;99.90;;;;;;5071256;28;20230;-80
2021/03/31 03:11:03;;;;;;;12.23;8.70;;;7.90;99.90;;;;;;5071730;28;20207;-78
2021/03/31 03:13:32;;;;;;;13.17;9.00;;;7.90;99.90;;;;;;5070942;28;20665;-80
2021/03/31 03:16:00;;;;;;;14.47;9.13;;;7.80;99.90;;;;;;5070620;28;20238;-80
2021/03/31 03:18:27;;;;;;;13.67;9.27;;;7.70;99.90;;;;;;5071337;28;20227;-81
2021/03/31 03:20:54;;;;;;;13.67;9.23;;;7.60;99.90;;;;;;5070915;28;20275;-80
2021/03/31 03:23:21;;;;;;;12.93;9.17;;;7.60;99.90;;;;;;5071209;28;20305;-80
2021/03/31 03:25:48;;;;;;;14.63;9.47;;;7.60;99.90;;;;;;5070411;28;20238;-80
2021/03/31 03:28:19;;;;;;;12.53;9.47;;;7.70;99.90;;;;;;5074190;28;20712;-79
2021/03/31 03:30:47;;;;;;;12.97;10.27;;;7.80;99.90;;;;;;5074783;28;20231;-80
2021/03/31 03:33:15;;;;;;;12.57;9.77;;;7.80;99.90;;;;;;5075865;28;20195;-80
2021/03/31 03:35:42;;;;;;;12.33;9.73;;;7.80;99.90;;;;;;5075306;28;20203;-80
2021/03/31 03:38:09;;;;;;;12.17;9.80;;;7.70;99.90;;;;;;5075097;28;20230;-80
2021/03/31 03:40:38;;;;;;;15.97;9.33;;;7.80;99.90;;;;;;5074892;28;20634;-80
2021/03/31 03:43:04;;;;;;;14.37;9.63;;;7.70;99.90;;;;;;5075097;28;20305;-80
2021/03/31 03:45:32;;;;;;;12.30;9.77;;;7.70;99.90;;;;;;5074993;28;20229;-80
2021/03/31 03:47:59;;;;;;;14.10;9.93;;;7.70;99.90;;;;;;5075255;28;20235;-80
2021/03/31 03:50:26;;;;;;;12.93;10.03;;;7.70;99.90;;;;;;5075141;28;20709;-80
2021/03/31 03:52:53;;;;;;;14.07;10.37;;;7.70;99.90;;;;;;5075063;28;20284;-80
2021/03/31 03:55:22;;;;;;;13.97;10.50;;;7.60;99.90;;;;;;5075198;28;20242;-80
2021/03/31 03:57:49;;;;;;;13.43;9.60;;;7.60;99.90;;;;;;5074261;28;20226;-80
2021/03/31 04:00:17;;;;;;;21.30;10.17;;;7.60;99.90;;;;;;5074545;28;20236;-80
2021/03/31 04:02:44;;;;;;;14.90;11.13;;;7.60;99.90;;;;;;5074928;28;20217;-80
2021/03/31 04:05:12;;;;;;;16.27;10.97;;;7.60;99.90;;;;;;5075264;28;20202;-80
2021/03/31 04:07:39;;;;;;;17.43;10.53;;;7.60;99.90;;;;;;5074320;28;20743;-80
2021/03/31 04:10:08;;;;;;;12.30;10.60;;;7.60;99.90;;;;;;5074123;28;20207;-80
2021/03/31 04:12:36;;;;;;;16.57;10.53;;;7.50;99.90;;;;;;5074442;28;20715;-80
2021/03/31 04:15:03;;;;;;;14.47;10.73;;;7.50;99.90;;;;;;5074209;28;20209;-80
2021/03/31 04:17:30;;;;;;;13.57;10.07;;;7.50;99.90;;;;;;5074269;28;20260;-80
2021/03/31 04:19:59;;;;;;;14.80;10.93;;;7.60;99.90;;;;;;5074516;28;20229;-80
2021/03/31 04:22:25;;;;;;;12.17;10.00;;;7.60;99.90;;;;;;5073602;28;20277;-80
2021/03/31 04:24:52;;;;;;;15.37;10.63;;;7.60;99.90;;;;;;5074495;28;20241;-79
2021/03/31 04:27:20;;;;;;;14.73;11.07;;;7.60;99.90;;;;;;5074377;28;20663;-80
2021/03/31 04:29:48;;;;;;;13.63;10.40;;;7.60;99.90;;;;;;5074057;28;20198;-79
2021/03/31 04:32:17;;;;;;;14.40;10.73;;;7.60;99.90;;;;;;5074544;28;20199;-80
2021/03/31 04:34:44;;;;;;;14.17;10.73;;;7.70;99.90;;;;;;5074384;28;20755;-80
2021/03/31 04:37:13;;;;;;;14.97;10.77;;;7.70;99.90;;;;;;5073821;28;20251;-80
2021/03/31 04:39:40;;;;;;;15.13;10.87;;;7.70;99.90;;;;;;5073525;28;20241;-80
2021/03/31 04:42:10;;;;;;;14.00;10.73;;;7.70;99.90;;;;;;5073884;28;20254;-80
2021/03/31 04:44:37;;;;;;;13.63;10.63;;;7.70;99.90;;;;;;5073833;28;20214;-80
2021/03/31 04:47:04;;;;;;;17.30;12.10;;;7.70;99.90;;;;;;5073942;28;20737;-80
2021/03/31 04:49:31;;;;;;;15.33;11.30;;;7.70;99.90;;;;;;5074046;28;20231;-80
2021/03/31 04:51:57;;;;;;;15.70;11.57;;;7.70;99.90;;;;;;5074172;28;20218;-80
2021/03/31 04:54:24;;;;;;;15.03;11.30;;;7.70;99.90;;;;;;5073274;28;20233;-80
2021/03/31 04:56:50;;;;;;;14.50;11.83;;;7.70;99.90;;;;;;5072108;28;20257;-80
2021/03/31 04:59:18;;;;;;;17.83;11.40;;;7.70;99.90;;;;;;5072226;28;20233;-80
2021/03/31 05:01:45;;;;;;;16.10;11.80;;;7.70;99.90;;;;;;5072952;28;20198;-81
2021/03/31 05:04:11;;;;;;;15.23;11.33;;;7.70;99.90;;;;;;5073409;28;20676;-81
2021/03/31 05:06:38;;;;;;;16.40;12.30;;;7.70;99.90;;;;;;5073779;28;20202;-81
2021/03/31 05:09:05;;;;;;;16.50;11.27;;;7.60;99.90;;;;;;5073975;28;20241;-81
2021/03/31 05:11:31;;;;;;;16.53;11.90;;;7.70;99.90;;;;;;5073705;28;20227;-81
2021/03/31 05:13:58;;;;;;;16.20;11.40;;;7.60;99.90;;;;;;5073442;28;20297;-81
2021/03/31 05:16:25;;;;;;;15.70;11.23;;;7.60;99.90;;;;;;5073283;28;20269;-81
2021/03/31 05:18:51;;;;;;;17.87;11.47;;;7.60;99.90;;;;;;5074083;28;20240;-81
2021/03/31 05:21:18;;;;;;;14.47;11.57;;;7.60;99.90;;;;;;5072613;28;20685;-81
2021/03/31 05:23:44;;;;;;;15.77;11.43;;;7.50;99.90;;;;;;5073656;28;20254;-81
2021/03/31 05:26:11;;;;;;;19.70;11.07;;;7.50;99.90;;;;;;5072516;28;20206;-81
2021/03/31 05:28:37;;;;;;;16.70;11.73;;;7.60;99.90;;;;;;5072826;28;20238;-81
2021/03/31 05:31:04;;;;;;;13.97;10.63;;;7.70;99.90;;;;;;5072941;28;20201;-81
2021/03/31 05:33:31;;;;;;;16.57;11.30;;;7.60;99.90;;;;;;5072776;28;20278;-81
2021/03/31 05:35:57;;;;;;;21.13;11.57;;;7.80;99.90;;;;;;5073125;28;20235;-81
2021/03/31 05:38:24;;;;;;;17.47;11.53;;;7.80;99.90;;;;;;5072774;28;20226;-82
2021/03/31 05:40:50;;;;;;;17.00;11.33;;;7.90;99.90;;;;;;5067978;28;20909;-81
2021/03/31 05:43:17;;;;;;;17.30;10.33;;;8.10;99.90;;;;;;5072689;28;20253;-81
2021/03/31 05:45:45;;;;;;;18.53;11.37;;;8.10;99.90;;;;;;5072159;28;20801;-81
2021/03/31 05:48:12;;;;;;;15.13;10.00;;;8.10;99.90;;;;;;5073093;28;20205;-81
2021/03/31 05:50:40;;;;;;;15.57;11.10;;;8.00;99.90;;;;;;5071317;28;20577;-81
2021/03/31 05:53:06;;;;;;;20.43;10.57;;;8.00;99.90;;;;;;5072202;28;20721;-82
2021/03/31 05:55:33;;;;;;;12.93;10.63;;;8.00;99.90;;;;;;5070052;28;20351;-82
2021/03/31 05:58:00;;;;;;;16.07;10.80;;;8.10;99.90;;;;;;5072110;28;20230;-81
2021/03/31 06:00:27;;;;;;;17.37;10.93;;;8.30;99.90;;;;;;5071567;28;20234;-82
2021/03/31 06:02:54;;;;;;;17.00;10.90;;;8.40;99.90;;;;;;5071599;28;20271;-81
2021/03/31 06:05:21;;;;;;;17.50;10.77;;;8.50;99.90;;;;;;5072299;28;20232;-81
2021/03/31 06:07:50;;;;;;;18.50;11.37;;;8.60;99.90;;;;;;5071407;28;20202;-82
2021/03/31 06:10:18;;;;;;;17.13;11.07;;;8.60;99.90;;;;;;5072394;28;20268;-81
2021/03/31 06:12:52;;;;;;;18.77;11.43;;;8.70;99.90;;;;;;5071793;28;20571;-81
2021/03/31 06:15:23;;;;;;;17.40;10.90;;;8.90;99.90;;;;;;5072056;28;20195;-80
2021/03/31 06:17:53;;;;;;;17.23;10.57;;;9.00;99.90;;;;;;5066351;28;20292;-80
2021/03/31 06:20:41;;;;;;;13.23;10.40;;;9.20;99.90;;;;;;5070043;28;20200;-81
2021/03/31 06:23:14;;;;;;;19.43;10.70;;;9.40;99.90;;;;;;5064019;28;20255;-80
2021/03/31 06:25:48;;;;;;;19.77;10.40;;;9.60;99.90;;;;;;5071246;28;20201;-80
2021/03/31 06:28:28;;;;;;;15.37;9.77;;;9.80;99.90;;;;;;5064799;28;20200;-80
2021/03/31 06:31:05;;;;;;;20.17;10.83;;;10.10;99.90;;;;;;5070719;28;20230;-80
2021/03/31 06:33:33;;;;;;;14.90;10.47;;;10.30;99.90;;;;;;5071180;28;20236;-82
2021/03/31 06:36:00;;;;;;;14.77;9.97;;;10.60;99.90;;;;;;5070002;28;20210;-80
2021/03/31 06:38:31;;;;;;;17.33;9.40;;;10.90;99.90;;;;;;5070739;28;20193;-80
2021/03/31 06:41:10;;;;;;;18.23;10.63;;;11.20;99.90;;;;;;5070281;28;20204;-81
2021/03/31 06:43:41;;;;;;;13.67;8.90;;;11.40;99.90;;;;;;5071451;28;20214;-81
2021/03/31 06:46:16;;;;;;;12.77;9.07;;;11.70;99.90;;;;;;5070824;28;20664;-80
2021/03/31 06:48:47;;;;;;;13.77;9.30;;;12.00;99.90;;;;;;5058618;28;20417;-81
2021/03/31 06:51:27;;;;;;;14.97;9.53;;;12.40;99.90;;;;;;5069808;28;20667;-81
2021/03/31 06:53:55;;;;;;;12.77;8.80;;;12.70;99.90;;;;;;5070938;28;20327;-80
2021/03/31 06:56:29;;;;;;;16.33;8.67;;;13.00;99.90;;;;;;5070809;28;20290;-81
2021/03/31 06:58:57;;;;;;;16.53;8.97;;;13.20;99.90;;;;;;5071069;28;20704;-80
2021/03/31 07:01:25;;;;;;;9.57;7.93;;;13.40;99.90;;;;;;5070726;28;20212;-82
2021/03/31 07:03:53;;;;;;;11.30;8.90;;;13.70;99.90;;;;;;5071308;28;20309;-83
2021/03/31 07:06:20;;;;;;;13.13;8.37;;;13.90;99.90;;;;;;5070476;28;20203;-83
2021/03/31 07:08:47;;;;;;;10.03;7.80;;;14.10;99.90;;;;;;5070517;28;20237;-83
2021/03/31 07:11:40;;;;;;;12.13;7.87;;;14.40;99.90;;;;;;5070846;28;20227;-83
2021/03/31 07:14:08;;;;;;;14.57;8.10;;;14.60;99.90;;;;;;5070333;28;20219;-83
2021/03/31 07:16:35;;;;;;;11.30;7.80;;;14.80;99.90;;;;;;5069528;28;20278;-80
2021/03/31 07:19:03;;;;;;;10.13;7.80;;;15.00;99.90;;;;;;5071330;28;20199;-80
2021/03/31 07:21:31;;;;;;;12.10;7.73;;;14.90;99.90;;;;;;5070419;28;20227;-81
2021/03/31 07:23:58;;;;;;;11.37;8.13;;;15.10;99.90;;;;;;5070807;28;20223;-80
2021/03/31 07:26:28;;;;;;;10.83;7.13;;;15.10;99.90;;;;;;5070832;28;20675;-80
2021/03/31 07:28:57;;;;;;;13.17;7.93;;;14.90;99.90;;;;;;5071916;28;20241;-81
2021/03/31 07:31:27;;;;;;;12.27;7.50;;;14.90;99.90;;;;;;5071087;28;20232;-81
2021/03/31 07:34:16;;;;;;;12.73;8.33;;;14.70;99.90;;;;;;5070903;28;20195;-80
2021/03/31 07:36:44;;;;;;;11.00;8.27;;;14.60;99.90;;;;;;5070837;28;20623;-81
2021/03/31 07:39:12;;;;;;;12.30;7.97;;;14.50;99.90;;;;;;5070105;28;20199;-80
2021/03/31 07:41:40;;;;;;;10.60;7.83;;;14.60;99.90;;;;;;5070039;28;20195;-80
2021/03/31 07:44:11;;;;;;;11.53;8.40;;;14.80;99.90;;;;;;5070887;28;20314;-80
2021/03/31 07:46:39;;;;;;;10.80;7.70;;;15.40;99.90;;;;;;5070646;28;20202;-79
2021/03/31 07:49:07;;;;;;;15.97;7.90;;;16.00;99.90;;;;;;5070827;28;20263;-79
2021/03/31 07:51:34;;;;;;;10.47;7.10;;;16.30;99.90;;;;;;5070731;28;20285;-79
2021/03/31 07:54:02;;;;;;;11.40;7.00;;;17.10;99.90;;;;;;5071629;28;20628;-80
2021/03/31 07:56:36;;;;;;;10.57;7.33;;;17.50;99.90;;;;;;5071474;28;20282;-79
2021/03/31 07:59:21;;;;;;;13.37;7.70;;;17.40;99.90;;;;;;5070654;28;20717;-79
2021/03/31 08:01:50;;;;;;;8.80;7.10;;;17.50;99.90;;;;;;5070365;28;20606;-79
2021/03/31 08:04:19;;;;;;;9.83;6.83;;;17.80;99.90;;;;;;5071248;28;20229;-80
2021/03/31 08:06:49;;;;;;;11.05;6.70;;;18.30;99.90;;;;;;5069673;28;20213;-80
2021/03/31 08:09:21;;;;;;;11.98;6.82;;;19.00;99.90;;;;;;5063836;28;20203;-80
2021/03/31 08:12:05;;;;;;;11.38;7.60;;;19.00;99.90;;;;;;5070696;28;20286;-79
2021/03/31 08:14:44;;;;;;;10.52;7.10;;;19.60;99.90;;;;;;5065844;28;20202;-80
2021/03/31 08:17:12;;;;;;;15.95;8.25;;;19.90;99.90;;;;;;5073931;28;20237;-80
2021/03/31 08:19:41;;;;;;;21.70;8.90;;;20.10;99.90;;;;;;5073459;28;20274;-80
2021/03/31 08:22:32;;;;;;;16.42;8.20;;;19.80;99.90;;;;;;5073018;28;20234;-80
2021/03/31 08:25:01;;;;;;;11.10;7.00;;;20.00;99.90;;;;;;5074033;28;20199;-80
2021/03/31 08:27:28;;;;;;;10.40;6.53;;;20.20;99.90;;;;;;5073129;28;20295;-81
2021/03/31 08:29:57;;;;;;;7.65;5.65;;;20.10;99.90;;;;;;5074460;28;20707;-80
2021/03/31 08:32:26;;;;;;;10.50;5.70;;;20.10;99.90;;;;;;5073678;28;20627;-80
2021/03/31 08:34:53;;;;;;;9.02;5.18;;;20.30;99.90;;;;;;5073496;28;20226;-80
2021/03/31 08:37:27;;;;;;;8.70;5.45;;;20.50;99.90;;;;;;5074168;28;20231;-80
2021/03/31 08:39:59;;;;;;;10.77;5.45;;;20.70;99.90;;;;;;5074627;28;20282;-80
2021/03/31 08:42:25;;;;;;;11.20;5.40;;;21.00;99.90;;;;;;5073443;28;20237;-80
2021/03/31 08:44:55;;;;;;;10.23;5.45;;;21.50;99.90;;;;;;5073918;28;20277;-80
2021/03/31 08:47:25;;;;;;;6.55;5.43;;;22.30;99.90;;;;;;5073521;28;20709;-80
2021/03/31 08:49:57;;;;;;;7.53;4.97;;;22.50;99.90;;;;;;5064838;28;20203;-81
2021/03/31 08:52:25;;;;;;;9.23;5.35;;;20.90;99.90;;;;;;5073428;28;20289;-82
2021/03/31 08:54:53;;;;;;;10.25;5.68;;;20.00;99.90;;;;;;5072997;28;20251;-81
2021/03/31 08:57:21;;;;;;;8.30;5.60;;;20.30;99.90;;;;;;5073561;28;20680;-81
2021/03/31 08:59:49;;;;;;;11.00;5.97;;;20.30;99.90;;;;;;5073104;28;20287;-81
2021/03/31 09:02:19;;;;;;;10.10;6.07;;;19.90;99.90;;;;;;5073445;28;20855;-81
2021/03/31 09:04:47;;;;;;;10.23;5.90;;;19.30;99.90;;;;;;5072945;28;20417;-81
2021/03/31 09:07:14;;;;;;;10.43;5.72;;;19.60;99.90;;;;;;5073715;28;20604;-81
2021/03/31 09:09:43;;;;;;;8.77;5.60;;;19.80;99.90;;;;;;5073229;28;20195;-81
2021/03/31 09:12:12;;;;;;;10.48;6.00;;;19.90;99.90;;;;;;5073058;28;20310;-82
2021/03/31 09:14:43;;;;;;;13.70;6.30;;;19.60;99.90;;;;;;5073315;28;20640;-82
2021/03/31 09:17:12;;;;;;;8.55;6.55;;;19.80;99.90;;;;;;5073074;28;20336;-82
2021/03/31 09:19:40;;;;;;;11.32;6.20;;;19.60;99.90;;;;;;5073352;28;20362;-82
2021/03/31 09:22:09;;;;;;;12.23;6.40;;;19.20;99.90;;;;;;5072786;28;20346;-83
2021/03/31 09:24:39;;;;;;;9.85;6.78;;;19.70;99.90;;;;;;5072531;28;20229;-83
2021/03/31 09:27:08;;;;;;;9.88;6.47;;;20.30;99.90;;;;;;5073145;28;20550;-84
2021/03/31 09:29:37;;;;;;;12.98;6.97;;;21.00;99.90;;;;;;5072887;28;20272;-84
2021/03/31 09:32:05;;;;;;;16.77;8.07;;;21.10;99.90;;;;;;5073080;28;20199;-84
2021/03/31 09:34:32;;;;;;;12.90;8.45;;;20.90;99.90;;;;;;5072254;28;20195;-83
2021/03/31 09:37:04;;;;;;;13.55;7.60;;;20.80;99.90;;;;;;5073119;28;20252;-84
2021/03/31 09:39:44;;;;;;;14.90;8.05;;;21.60;99.90;;;;;;5072103;28;20583;-84
2021/03/31 09:42:16;;;;;;;12.32;8.20;;;21.50;99.90;;;;;;5070140;28;20282;-84
2021/03/31 09:44:43;;;;;;;14.52;8.13;;;21.80;99.90;;;;;;5072010;28;20372;-84
2021/03/31 09:47:10;;;;;;;11.57;7.93;;;21.30;99.90;;;;;;5072747;28;20739;-84
2021/03/31 09:49:37;;;;;;;14.55;7.68;;;21.00;99.90;;;;;;5073490;28;20203;-85
2021/03/31 09:52:05;;;;;;;10.35;7.75;;;21.00;99.90;;;;;;5073522;28;20207;-84
2021/03/31 09:54:32;;;;;;;13.68;8.18;;;21.30;99.90;;;;;;5072502;28;20253;-85
2021/03/31 09:57:00;;;;;;;13.10;7.22;;;19.90;99.90;;;;;;5073447;28;20195;-84
2021/03/31 09:59:27;;;;;;;12.35;8.00;;;19.70;99.90;;;;;;5072621;28;20268;-84
2021/03/31 10:01:54;;;;;;;11.32;7.55;;;20.40;99.90;;;;;;5073337;28;20223;-83
2021/03/31 10:04:21;;;;;;;9.68;7.78;;;20.50;99.90;;;;;;5073925;28;20243;-84
2021/03/31 10:07:07;;;;;;;9.35;6.93;;;20.10;99.90;;;;;;5074887;28;20192;-84
2021/03/31 10:09:40;;;;;;;10.75;6.90;;;21.00;99.90;;;;;;5074364;28;20207;-84
2021/03/31 10:12:09;;;;;;;11.88;6.50;;;21.10;99.90;;;;;;5074073;28;20258;-84
2021/03/31 10:14:46;;;;;;;9.68;6.38;;;21.80;99.90;;;;;;5073439;28;20710;-84
2021/03/31 10:17:15;;;;;;;10.00;6.63;;;21.80;99.90;;;;;;5071786;28;20207;-84
2021/03/31 10:19:41;;;;;;;10.57;6.22;;;21.70;99.90;;;;;;5073725;28;20688;-83
2021/03/31 10:22:08;;;;;;;10.10;6.47;;;21.60;99.90;;;;;;5073713;28;20322;-84
2021/03/31 10:24:37;;;;;;;8.27;6.20;;;22.30;99.90;;;;;;5073300;28;20249;-84
2021/03/31 10:27:04;;;;;;;16.10;6.70;;;22.00;99.90;;;;;;5074237;28;20225;-83
2021/03/31 10:29:32;;;;;;;11.25;5.97;;;22.40;99.90;;;;;;5074136;28;20230;-84
2021/03/31 10:32:00;;;;;;;11.88;6.00;;;21.70;99.90;;;;;;5073908;28;20273;-84
2021/03/31 10:34:38;;;;;;;11.60;6.55;;;21.20;99.90;;;;;;5074488;28;20715;-84
2021/03/31 10:37:09;;;;;;;10.77;6.13;;;21.20;99.90;;;;;;5073289;28;20194;-83
2021/03/31 10:51:20;;;;;;;11.13;5.80;;;21.00;99.90;;;;;;4996342;28;20223;-84
2021/03/31 10:53:52;;;;;;;11.85;6.90;;;21.50;99.90;;;;;;5023331;28;20266;-84
2021/03/31 10:56:19;;;;;;;13.48;6.57;;;20.50;99.90;;;;;;5031144;28;20196;-84
2021/03/31 10:58:46;;;;;;;12.02;5.47;;;20.10;99.90;;;;;;5031203;28;20193;-84
2021/03/31 11:01:13;;;;;;;11.07;6.53;;;20.80;99.90;;;;;;5030696;28;20783;-85
2021/03/31 11:03:40;;;;;;;12.57;7.55;;;20.60;99.90;;;;;;5029112;28;20325;-85
2021/03/31 11:06:06;;;;;;;13.07;7.07;;;20.40;99.90;;;;;;5013210;28;20292;-84
2021/03/31 11:08:33;;;;;;;12.23;6.40;;;20.90;99.90;;;;;;5030605;28;20238;-84
2021/03/31 11:10:59;;;;;;;15.30;7.63;;;20.80;99.90;;;;;;5030903;28;20231;-84
2021/03/31 11:13:26;;;;;;;11.38;6.70;;;20.70;99.90;;;;;;5031376;28;20251;-85
2021/03/31 11:15:55;;;;;;;11.90;6.15;;;20.60;99.90;;;;;;5030819;28;20192;-86
2021/03/31 11:18:26;;;;;;;12.63;6.57;;;20.70;99.90;;;;;;5031415;28;20605;-86
2021/03/31 11:26:18;;;;;;;11.52;6.32;;;20.80;99.90;;;;;;5072031;28;20690;-85
2021/03/31 11:28:46;;;;;;;10.30;6.60;;;20.80;99.90;;;;;;5072019;28;20280;-85
2021/03/31 11:31:12;;;;;;;14.02;6.47;;;20.90;99.90;;;;;;5071588;28;20199;-84
2021/03/31 11:33:40;;;;;;;10.68;6.50;;;21.90;99.90;;;;;;5072603;28;20245;-87
2021/03/31 11:36:07;;;;;;;9.35;6.20;;;21.60;99.90;;;;;;5066357;28;20206;-81
2021/03/31 11:38:34;;;;;;;12.75;6.53;;;21.30;99.90;;;;;;5069145;28;20203;-86
2021/03/31 11:41:00;;;;;;;10.23;6.70;;;21.40;99.90;;;;;;5070413;28;20195;-84
2021/03/31 11:43:27;;;;;;;11.38;6.50;;;20.90;99.90;;;;;;5069736;28;20298;-84
2021/03/31 11:45:53;;;;;;;11.65;6.45;;;20.60;99.90;;;;;;5070362;28;20238;-85
2021/03/31 11:48:20;;;;;;;11.60;6.22;;;20.70;99.90;;;;;;5071601;28;20226;-84
2021/03/31 11:50:47;;;;;;;12.32;6.68;;;20.90;99.90;;;;;;5073698;28;20207;-85
2021/03/31 11:53:14;;;;;;;14.23;6.50;;;21.40;99.90;;;;;;5075416;28;20191;-84
2021/03/31 11:55:40;;;;;;;12.10;6.03;;;21.80;99.90;;;;;;5075435;28;20199;-84
2021/03/31 11:58:07;;;;;;;15.38;6.30;;;22.10;99.90;;;;;;5074363;28;20235;-84
2021/03/31 12:00:36;;;;;;;10.80;6.13;;;23.00;99.90;;;;;;5074350;28;20676;-84
2021/03/31 12:03:03;;;;;;;12.85;6.72;;;22.90;99.90;;;;;;5076230;28;20223;-85
2021/03/31 12:05:29;;;;;;;11.45;6.57;;;22.60;99.90;;;;;;5074297;28;20647;-84
2021/03/31 12:08:00;;;;;;;12.00;6.05;;;22.50;99.90;;;;;;5073577;28;20286;-85
2021/03/31 12:10:27;;;;;;;9.55;5.63;;;22.90;99.90;;;;;;5073092;28;20199;-85
2021/03/31 12:12:53;;;;;;;15.27;5.25;;;23.30;99.90;;;;;;5072367;28;20308;-85
2021/03/31 12:15:20;;;;;;;11.10;5.18;;;23.80;99.90;;;;;;5071298;28;20234;-84
2021/03/31 12:17:46;;;;;;;12.90;5.00;;;23.40;99.90;;;;;;5073781;28;20207;-84
2021/03/31 12:20:15;;;;;;;9.63;4.40;;;22.90;99.90;;;;;;5074230;28;20688;-85
2021/03/31 12:22:43;;;;;;;12.48;5.03;;;23.50;99.90;;;;;;5073689;28;20282;-84
2021/03/31 12:25:12;;;;;;;12.43;5.05;;;23.60;99.90;;;;;;5068427;28;20874;-84
2021/03/31 12:27:40;;;;;;;10.55;4.72;;;23.10;99.90;;;;;;5074370;28;20186;-85
2021/03/31 12:30:12;;;;;;;10.77;5.35;;;23.00;99.90;;;;;;5072751;28;20260;-84
2021/03/31 12:32:39;;;;;;;11.13;5.43;;;22.80;99.90;;;;;;5073906;28;20199;-85
2021/03/31 12:35:10;;;;;;;12.70;5.25;;;22.30;99.90;;;;;;5073640;28;20210;-86
2021/03/31 12:37:36;;;;;;;9.00;4.80;;;22.20;99.90;;;;;;5073679;28;20256;-85
2021/03/31 12:40:03;;;;;;;10.07;5.38;;;22.20;99.90;;;;;;5073084;28;20245;-84
2021/03/31 12:43:03;;;;;;;;;;;;;;;;;;;;;
2021/03/31 12:45:31;;;;;;;11.75;4.32;;;22.60;99.90;;;;;;5065744;28;20199;-87
2021/03/31 12:47:58;;;;;;;10.73;4.70;;;22.40;99.90;;;;;;5074267;28;20574;-85
2021/03/31 12:50:25;;;;;;;9.20;4.80;;;22.40;99.90;;;;;;5073465;28;20301;-86
2021/03/31 12:52:52;;;;;;;7.90;4.50;;;22.60;99.90;;;;;;5073926;28;20277;-85
2021/03/31 12:55:23;;;;;;;8.32;4.18;;;22.30;99.90;;;;;;5073490;28;20199;-87
2021/03/31 12:57:56;;;;;;;9.38;4.85;;;22.50;99.90;;;;;;5072675;28;20206;-85
2021/03/31 13:00:24;;;;;;;9.48;5.30;;;22.90;99.90;;;;;;5071400;28;20260;-87
2021/03/31 13:02:50;;;;;;;9.43;4.43;;;23.90;99.90;;;;;;5072599;28;20269;-88
2021/03/31 13:05:17;;;;;;;11.18;4.88;;;23.60;99.90;;;;;;5072919;28;20675;-86
2021/03/31 13:07:44;;;;;;;12.80;5.28;;;23.60;99.90;;;;;;5072573;28;20214;-85